createdAt,value
2018-12-25T00:01:51.346Z,1.00
2018-12-25T00:04:22.804Z,1.70
2018-12-25T00:06:55.104Z,1.90
2018-12-25T00:09:26.505Z,2.00
2018-12-25T00:11:56.389Z,2.00
2018-12-25T00:14:26.501Z,1.37
2018-12-25T00:17:01.885Z,1.37
2018-12-25T00:19:32.756Z,1.20
2018-12-25T00:22:01.392Z,1.53
2018-12-25T00:24:32.270Z,1.50
2018-12-25T00:27:05.511Z,1.93
2018-12-25T00:29:35.863Z,1.50
2018-12-25T00:32:07.966Z,1.53
2018-12-25T00:34:39.237Z,1.50
2018-12-25T00:37:13.329Z,1.70
2018-12-25T00:39:44.308Z,1.90
2018-12-25T00:42:14.586Z,2.57
2018-12-25T00:44:46.306Z,1.03
2018-12-25T00:47:19.301Z,1.10
2018-12-25T00:49:49.713Z,1.30
2018-12-25T00:52:21.166Z,1.23
2018-12-25T00:54:51.606Z,2.27
2018-12-25T00:57:21.657Z,1.20
2018-12-25T00:59:52.093Z,1.33
2018-12-25T01:02:22.488Z,0.97
2018-12-25T01:04:52.921Z,1.27
2018-12-25T01:07:26.389Z,1.70
2018-12-25T01:09:56.252Z,1.00
2018-12-25T01:12:27.360Z,1.27
2018-12-25T01:14:57.313Z,1.10
2018-12-25T01:17:27.360Z,1.50
2018-12-25T01:19:57.525Z,1.20
2018-12-25T01:22:28.745Z,1.30
2018-12-25T01:24:59.349Z,2.50
2018-12-25T01:27:31.060Z,3.33
2018-12-25T01:30:02.309Z,5.57
2018-12-25T01:32:34.267Z,2.70
2018-12-25T01:35:04.992Z,6.53
2018-12-25T01:37:36.521Z,2.53
2018-12-25T01:40:07.844Z,4.50
2018-12-25T01:42:40.337Z,2.37
2018-12-25T01:45:09.434Z,2.50
2018-12-25T01:47:39.857Z,2.77
2018-12-25T01:50:11.636Z,1.83
2018-12-25T01:52:40.176Z,2.53
2018-12-25T01:55:09.526Z,2.43
2018-12-25T01:57:39.442Z,3.93
2018-12-25T02:00:09.244Z,3.23
2018-12-25T02:02:38.042Z,1.70
2018-12-25T02:05:09.618Z,2.53
2018-12-25T02:07:39.566Z,2.37
2018-12-25T02:10:09.488Z,3.63
2018-12-25T02:12:39.731Z,5.40
2018-12-25T02:15:10.246Z,2.67
2018-12-25T02:17:41.500Z,1.17
2018-12-25T02:20:13.654Z,5.37
2018-12-25T02:22:45.398Z,3.60
2018-12-25T02:25:14.919Z,1.23
2018-12-25T02:27:46.807Z,5.20
2018-12-25T02:30:18.547Z,2.33
2018-12-25T02:32:50.847Z,1.37
2018-12-25T02:35:21.279Z,1.40
2018-12-25T02:37:52.687Z,1.53
2018-12-25T02:40:22.548Z,1.50
2018-12-25T02:42:54.771Z,1.23
2018-12-25T02:45:24.218Z,1.57
2018-12-25T02:47:54.667Z,1.40
2018-12-25T02:50:24.764Z,1.63
2018-12-25T02:52:56.141Z,1.20
2018-12-25T02:55:27.139Z,2.67
2018-12-25T02:57:58.413Z,1.40
2018-12-25T03:00:29.644Z,1.03
2018-12-25T03:03:00.746Z,2.43
2018-12-25T03:05:31.752Z,1.17
2018-12-25T03:08:03.022Z,1.70
2018-12-25T03:10:34.312Z,1.43
2018-12-25T03:13:05.569Z,1.77
2018-12-25T03:15:35.653Z,1.37
2018-12-25T03:18:04.455Z,1.33
2018-12-25T03:20:35.697Z,2.20
2018-12-25T03:23:05.692Z,1.80
2018-12-25T03:25:38.448Z,0.97
2018-12-25T03:28:07.798Z,1.27
2018-12-25T03:30:40.688Z,2.23
2018-12-25T03:33:11.448Z,1.20
2018-12-25T03:35:40.231Z,1.63
2018-12-25T03:38:11.885Z,3.53
2018-12-25T03:40:43.597Z,10.63
2018-12-25T03:43:14.750Z,3.07
2018-12-25T03:45:46.020Z,2.63
2018-12-25T03:48:16.116Z,1.93
2018-12-25T03:50:44.638Z,2.03
2018-12-25T03:53:16.459Z,3.07
2018-12-25T03:55:49.028Z,1.97
2018-12-25T03:58:19.600Z,2.67
2018-12-25T04:00:51.772Z,2.00
2018-12-25T04:03:21.266Z,3.40
2018-12-25T04:05:49.964Z,1.50
2018-12-25T04:08:19.328Z,1.20
2018-12-25T04:10:50.860Z,2.60
2018-12-25T04:13:21.526Z,1.10
2018-12-25T04:15:53.009Z,1.30
2018-12-25T04:18:22.697Z,1.13
2018-12-25T04:20:51.916Z,2.23
2018-12-25T04:23:23.528Z,1.23
2018-12-25T04:25:53.364Z,1.50
2018-12-25T04:28:23.402Z,3.90
2018-12-25T04:30:54.510Z,4.50
2018-12-25T04:33:25.099Z,1.60
2018-12-25T04:35:57.636Z,1.37
2018-12-25T04:38:27.782Z,2.70
2018-12-25T04:40:58.221Z,1.13
2018-12-25T04:43:28.631Z,1.10
2018-12-25T04:45:58.707Z,2.00
2018-12-25T04:48:28.340Z,1.33
2018-12-25T04:50:59.918Z,2.80
2018-12-25T04:53:30.829Z,1.83
2018-12-25T04:56:01.716Z,2.20
2018-12-25T04:58:33.777Z,1.20
2018-12-25T05:01:05.978Z,2.17
2018-12-25T05:03:37.394Z,1.20
2018-12-25T05:06:07.315Z,1.90
2018-12-25T05:08:35.949Z,1.03
2018-12-25T05:11:06.372Z,2.37
2018-12-25T05:13:38.663Z,1.80
2018-12-25T05:16:10.259Z,2.27
2018-12-25T05:18:39.250Z,1.03
2018-12-25T05:21:08.036Z,3.33
2018-12-25T05:23:38.188Z,1.03
2018-12-25T05:26:07.796Z,2.47
2018-12-25T05:28:37.673Z,2.00
2018-12-25T05:31:07.814Z,1.67
2018-12-25T05:33:38.496Z,1.40
2018-12-25T05:36:09.971Z,1.10
2018-12-25T05:38:40.057Z,2.50
2018-12-25T05:41:11.144Z,1.23
2018-12-25T05:43:41.778Z,3.10
2018-12-25T05:46:11.858Z,1.43
2018-12-25T05:48:43.480Z,2.20
2018-12-25T05:51:14.752Z,1.17
2018-12-25T05:53:43.268Z,1.10
2018-12-25T05:56:14.933Z,1.57
2018-12-25T05:58:46.660Z,1.50
2018-12-25T06:01:20.620Z,1.23
2018-12-25T06:03:49.969Z,2.13
2018-12-25T06:06:28.828Z,2.43
2018-12-25T06:08:59.567Z,1.07
2018-12-25T06:11:29.154Z,3.00
2018-12-25T06:14:02.857Z,2.87
2018-12-25T06:16:35.034Z,2.10
2018-12-25T06:19:09.414Z,1.43
2018-12-25T06:21:40.071Z,1.43
2018-12-25T06:24:10.099Z,1.77
2018-12-25T06:26:40.193Z,1.33
2018-12-25T06:29:10.352Z,1.27
2018-12-25T06:31:43.843Z,1.10
2018-12-25T06:34:12.624Z,2.10
2018-12-25T06:37:05.110Z,1.20
2018-12-25T06:39:41.821Z,1.33
2018-12-25T06:42:23.520Z,1.43
2018-12-25T06:44:51.007Z,1.37
2018-12-25T06:47:24.694Z,4.87
2018-12-25T06:49:53.506Z,2.00
2018-12-25T06:52:24.370Z,3.00
2018-12-25T06:57:48.383Z,5.03
2018-12-25T07:00:17.978Z,7.90
2018-12-25T07:02:52.446Z,2.40
2018-12-25T07:05:21.114Z,3.83
2018-12-25T07:07:50.217Z,6.97
2018-12-25T07:10:18.749Z,2.03
2018-12-25T07:12:48.132Z,1.93
2018-12-25T07:15:21.817Z,1.40
2018-12-25T07:17:51.730Z,2.43
2018-12-25T07:20:21.082Z,4.37
2018-12-25T07:22:55.070Z,2.93
2018-12-25T07:25:28.629Z,1.93
2018-12-25T07:28:00.791Z,6.23
2018-12-25T07:30:38.265Z,2.47
2018-12-25T07:33:08.097Z,1.40
2018-12-25T07:35:39.049Z,4.47
2018-12-25T07:38:07.608Z,1.57
2018-12-25T07:40:41.426Z,1.93
2018-12-25T07:43:10.274Z,2.73
2018-12-25T07:45:42.895Z,3.07
2018-12-25T07:48:13.038Z,3.80
2018-12-25T07:50:45.677Z,6.00
2018-12-25T07:53:18.810Z,6.30
2018-12-25T07:55:49.114Z,1.50
2018-12-25T07:58:19.228Z,1.77
2018-12-25T08:00:50.437Z,1.30
2018-12-25T08:03:22.535Z,3.07
2018-12-25T08:05:53.487Z,1.33
2018-12-25T08:08:26.442Z,4.00
2018-12-25T08:10:59.234Z,2.87
2018-12-25T08:13:30.918Z,1.53
2018-12-25T08:16:03.386Z,1.47
2018-12-25T08:18:36.636Z,1.20
2018-12-25T08:23:57.744Z,3.50
2018-12-25T08:26:32.646Z,5.00
2018-12-25T08:29:09.874Z,1.27
2018-12-25T08:31:39.186Z,2.00
2018-12-25T08:34:13.697Z,6.90
2018-12-25T08:36:44.162Z,3.20
2018-12-25T08:39:18.802Z,2.23
2018-12-25T08:41:47.253Z,1.93
2018-12-25T08:44:16.670Z,1.97
2018-12-25T08:46:54.445Z,1.47
2018-12-25T08:49:26.743Z,2.00
2018-12-25T08:51:59.190Z,2.60
2018-12-25T08:54:31.670Z,5.53
2018-12-25T08:57:03.893Z,3.20
2018-12-25T08:59:36.914Z,2.97
2018-12-25T09:02:04.313Z,3.70
2018-12-25T09:04:34.846Z,2.73
2018-12-25T09:07:05.074Z,1.17
2018-12-25T09:09:40.981Z,3.07
2018-12-25T09:12:09.559Z,1.27
2018-12-25T09:14:41.937Z,2.37
2018-12-25T09:17:15.102Z,1.40
2018-12-25T09:19:46.867Z,1.07
2018-12-25T09:22:17.018Z,1.90
2018-12-25T09:24:45.611Z,4.10
2018-12-25T09:27:15.348Z,1.77
2018-12-25T09:29:47.148Z,1.20
2018-12-25T09:32:17.329Z,2.10
2018-12-25T09:34:51.307Z,1.30
2018-12-25T09:37:21.493Z,1.77
2018-12-25T09:39:54.925Z,1.63
2018-12-25T09:42:24.541Z,2.63
2018-12-25T09:45:13.847Z,2.00
2018-12-25T09:47:55.235Z,5.83
2018-12-25T09:50:28.821Z,5.40
2018-12-25T09:53:01.635Z,26.80
2018-12-25T09:55:32.443Z,20.00
2018-12-25T09:58:03.329Z,16.90
2018-12-25T10:00:34.571Z,12.23
2018-12-25T10:03:05.534Z,12.83
2018-12-25T10:05:36.011Z,16.00
2018-12-25T10:08:05.730Z,10.87
2018-12-25T10:10:37.176Z,6.23
2018-12-25T10:13:12.859Z,9.83
2018-12-25T10:15:44.694Z,13.87
2018-12-25T10:18:15.083Z,6.63
2018-12-25T10:20:47.659Z,3.60
2018-12-25T10:23:19.132Z,3.10
2018-12-25T10:26:08.109Z,4.00
2018-12-25T10:43:54.912Z,2.27
2018-12-25T10:46:37.228Z,4.00
2018-12-25T10:49:08.149Z,1.53
2018-12-25T10:51:43.536Z,1.93
2018-12-25T10:54:14.549Z,1.90
2018-12-25T10:56:53.042Z,2.60
2018-12-25T10:59:24.832Z,2.10
2018-12-25T11:01:55.968Z,3.30
2018-12-25T11:04:27.506Z,1.70
2018-12-25T11:06:58.630Z,2.50
2018-12-25T11:09:30.343Z,3.87
2018-12-25T11:12:01.006Z,1.37
2018-12-25T11:14:29.541Z,2.77
2018-12-25T11:17:01.674Z,2.17
2018-12-25T11:19:30.473Z,2.50
2018-12-25T11:22:00.765Z,5.87
2018-12-25T11:24:33.372Z,1.57
2018-12-25T11:27:11.703Z,2.10
2018-12-25T11:29:57.186Z,1.50
2018-12-25T11:32:35.344Z,10.00
2018-12-25T11:35:05.133Z,13.77
2018-12-25T11:37:36.112Z,8.07
2018-12-25T11:40:11.413Z,6.50
2018-12-25T11:42:47.017Z,4.30
2018-12-25T11:45:23.827Z,3.53
2018-12-25T11:47:59.509Z,1.97
2018-12-25T11:50:25.334Z,2.47
2018-12-25T11:53:08.468Z,2.80
2018-12-25T11:55:40.905Z,2.53
2018-12-25T11:58:12.144Z,3.67
2018-12-25T12:00:43.409Z,1.93
2018-12-25T12:03:13.852Z,3.23
2018-12-25T12:05:45.702Z,4.40
2018-12-25T12:08:16.142Z,2.63
2018-12-25T12:10:47.478Z,1.47
2018-12-25T12:13:26.609Z,2.83
2018-12-25T12:15:58.393Z,2.47
2018-12-25T12:18:29.872Z,1.50
2018-12-25T12:21:03.789Z,2.03
2018-12-25T12:23:34.914Z,2.37
2018-12-25T12:26:07.228Z,2.00
2018-12-25T12:28:39.021Z,6.23
2018-12-25T12:31:10.949Z,3.60
2018-12-25T12:33:43.007Z,1.37
2018-12-25T12:36:14.224Z,2.33
2018-12-25T12:38:45.680Z,1.00
2018-12-25T12:41:18.485Z,4.10
2018-12-25T12:43:51.230Z,1.13
2018-12-25T12:46:22.217Z,1.30
2018-12-25T12:48:52.694Z,1.50
2018-12-25T12:51:21.324Z,1.17
2018-12-25T12:53:56.462Z,3.43
2018-12-25T12:56:26.981Z,1.93
2018-12-25T12:58:57.416Z,1.40
2018-12-25T13:01:29.077Z,2.93
2018-12-25T13:04:01.779Z,0.80
2018-12-25T13:06:33.903Z,1.40
2018-12-25T13:09:05.313Z,1.20
2018-12-25T13:11:35.372Z,1.60
2018-12-25T13:14:06.952Z,2.07
2018-12-25T13:16:40.950Z,1.53
2018-12-25T13:19:11.424Z,1.20
2018-12-25T13:21:41.929Z,0.80
2018-12-25T13:24:14.745Z,1.17
2018-12-25T13:26:46.198Z,1.27
2018-12-25T13:29:16.619Z,1.00
2018-12-25T13:31:48.434Z,1.63
2018-12-25T13:34:20.841Z,2.07
2018-12-25T13:36:49.496Z,1.40
2018-12-25T13:39:19.955Z,1.10
2018-12-25T13:41:49.204Z,1.23
2018-12-25T13:44:24.471Z,1.77
2018-12-25T13:49:54.026Z,1.50
2018-12-25T13:53:11.138Z,1.03
2018-12-25T13:55:41.773Z,1.07
2018-12-25T13:58:11.298Z,1.10
2018-12-25T14:00:41.712Z,1.13
2018-12-25T14:03:16.478Z,0.80
2018-12-25T14:05:48.276Z,1.47
2018-12-25T14:08:17.524Z,1.53
2018-12-25T14:10:47.436Z,1.13
2018-12-25T14:13:23.007Z,2.70
2018-12-25T14:15:53.633Z,1.20
2018-12-25T14:18:23.495Z,1.10
2018-12-25T14:20:54.977Z,1.93
2018-12-25T14:23:27.469Z,1.00
2018-12-25T14:26:00.651Z,1.27
2018-12-25T14:28:42.770Z,1.20
2018-12-25T14:31:13.980Z,1.40
2018-12-25T14:33:45.922Z,1.13
2018-12-25T14:36:15.760Z,3.07
2018-12-25T14:38:47.785Z,1.70
2018-12-25T14:41:19.056Z,1.23
2018-12-25T14:43:51.762Z,0.80
2018-12-25T14:46:23.202Z,1.20
2018-12-25T14:48:53.667Z,2.90
2018-12-25T14:51:24.918Z,2.93
2018-12-25T14:53:58.230Z,2.67
2018-12-25T14:56:29.715Z,2.23
2018-12-25T14:59:00.220Z,1.23
2018-12-25T15:01:30.576Z,1.93
2018-12-25T15:04:04.035Z,1.00
2018-12-25T15:06:35.226Z,2.07
2018-12-25T15:09:05.372Z,1.20
2018-12-25T15:11:38.861Z,2.73
2018-12-25T15:14:11.179Z,2.03
2018-12-25T15:16:41.132Z,1.30
2018-12-25T15:19:10.874Z,3.00
2018-12-25T15:21:42.062Z,1.67
2018-12-25T15:24:11.858Z,1.30
2018-12-25T15:26:41.302Z,1.37
2018-12-25T15:29:11.665Z,2.37
2018-12-25T15:31:42.096Z,1.83
2018-12-25T15:37:12.912Z,2.07
2018-12-25T15:39:45.139Z,2.83
2018-12-25T15:42:14.495Z,5.83
2018-12-25T15:44:44.855Z,4.07
2018-12-25T15:47:14.929Z,3.67
2018-12-25T15:49:46.546Z,5.60
2018-12-25T15:52:18.098Z,7.90
2018-12-25T15:54:48.203Z,4.43
2018-12-25T15:57:16.992Z,4.40
2018-12-25T15:59:48.343Z,5.10
2018-12-25T16:02:18.663Z,3.43
2018-12-25T16:04:49.618Z,6.83
2018-12-25T16:07:19.693Z,1.40
2018-12-25T16:09:50.833Z,3.83
2018-12-25T16:12:22.290Z,2.30
2018-12-25T16:14:53.246Z,1.37
2018-12-25T16:17:23.392Z,1.10
2018-12-25T16:19:54.809Z,1.30
2018-12-25T16:22:25.646Z,2.60
2018-12-25T16:24:55.118Z,2.30
2018-12-25T16:27:26.280Z,2.33
2018-12-25T16:29:57.622Z,1.83
2018-12-25T16:32:28.812Z,4.60
2018-12-25T16:35:00.454Z,5.97
2018-12-25T16:37:32.266Z,8.30
2018-12-25T16:40:03.422Z,6.30
2018-12-25T16:42:49.147Z,3.43
2018-12-25T16:45:25.298Z,3.67
2018-12-25T16:47:54.426Z,4.00
2018-12-25T16:50:25.547Z,2.40
2018-12-25T16:58:36.966Z,2.13
2018-12-25T17:01:07.926Z,1.33
2018-12-25T17:03:39.298Z,1.40
2018-12-25T17:06:10.862Z,1.53
2018-12-25T17:08:40.754Z,1.50
2018-12-25T17:11:11.267Z,2.00
2018-12-25T17:13:42.268Z,3.03
2018-12-25T17:16:10.865Z,1.70
2018-12-25T17:18:50.723Z,2.00
2018-12-25T17:21:21.942Z,1.13
2018-12-25T17:23:52.061Z,1.33
2018-12-25T17:26:24.704Z,1.43
2018-12-25T17:28:54.067Z,1.77
2018-12-25T17:37:37.134Z,5.47
2018-12-25T17:43:01.234Z,10.90
2018-12-25T17:48:39.358Z,2.63
2018-12-25T17:54:10.854Z,1.63
2018-12-25T17:56:42.685Z,2.90
2018-12-25T17:59:16.148Z,1.93
2018-12-25T18:01:45.944Z,2.00
2018-12-25T18:04:17.050Z,2.73
2018-12-25T18:06:58.070Z,3.33
2018-12-25T18:09:29.886Z,2.13
2018-12-25T18:12:05.309Z,2.33
2018-12-25T18:14:41.970Z,1.37
2018-12-25T18:20:13.499Z,1.90
2018-12-25T18:41:22.872Z,1.30
2018-12-25T18:43:52.441Z,1.40
2018-12-25T18:46:25.334Z,3.90
2018-12-25T18:48:56.962Z,3.17
2018-12-25T18:51:28.688Z,2.27
2018-12-25T18:53:59.160Z,1.30
2018-12-25T18:59:44.068Z,1.07
2018-12-25T19:05:41.845Z,1.50
2018-12-25T19:11:26.262Z,1.10
2018-12-25T19:16:56.051Z,1.30
2018-12-25T19:19:25.534Z,1.93
2018-12-25T19:21:55.814Z,1.47
2018-12-25T19:24:26.772Z,1.30
2018-12-25T19:27:11.365Z,1.93
2018-12-25T19:32:43.850Z,1.10
2018-12-25T19:35:17.172Z,1.37
2018-12-25T19:37:48.269Z,1.77
2018-12-25T19:40:27.658Z,1.40
2018-12-25T19:43:21.296Z,1.33
2018-12-25T19:45:51.163Z,1.23
2018-12-25T19:49:23.555Z,1.43
2018-12-25T19:50:59.778Z,1.30
2018-12-25T19:56:41.373Z,2.53
2018-12-25T19:59:31.681Z,1.20
2018-12-25T20:26:02.162Z,1.47
2018-12-25T20:29:17.115Z,1.10
2018-12-25T20:35:29.734Z,1.70
2018-12-25T20:38:04.398Z,1.50
2018-12-25T20:41:03.130Z,1.30
2018-12-25T20:43:53.045Z,1.73
2018-12-25T20:46:47.144Z,1.13
2018-12-25T20:49:51.769Z,1.00
2018-12-25T20:52:38.516Z,1.33
2018-12-25T20:55:25.673Z,1.00
2018-12-25T20:58:23.936Z,3.10
2018-12-25T21:01:21.294Z,1.20
2018-12-25T21:04:29.010Z,1.10
2018-12-25T21:07:25.669Z,1.10
2018-12-25T21:10:33.936Z,1.40
2018-12-25T21:13:31.761Z,3.23
2018-12-25T21:16:13.838Z,1.20
2018-12-25T21:19:07.822Z,0.80
2018-12-25T21:21:45.872Z,0.90
2018-12-25T21:24:50.317Z,1.20
2018-12-25T21:27:34.049Z,1.30
2018-12-25T21:30:08.018Z,1.30
2018-12-25T21:32:38.992Z,1.00
2018-12-25T21:35:14.863Z,0.90
2018-12-25T21:43:55.304Z,1.13
2018-12-25T21:46:25.084Z,1.10
2018-12-25T21:48:57.072Z,0.90
2018-12-25T21:51:27.418Z,0.90
2018-12-25T21:53:57.386Z,2.53
2018-12-25T22:14:25.806Z,1.20
2018-12-25T22:16:56.382Z,0.83
2018-12-25T22:19:29.709Z,1.30
2018-12-25T22:22:03.027Z,1.23
2018-12-25T22:43:00.178Z,1.23
2018-12-25T22:45:30.280Z,1.17
2018-12-25T22:48:02.163Z,1.10
2018-12-25T22:53:59.180Z,1.50
2018-12-25T22:59:33.386Z,1.30
2018-12-25T23:02:05.257Z,1.20
2018-12-25T23:04:37.996Z,1.37
2018-12-25T23:07:08.146Z,1.40
2018-12-25T23:15:15.532Z,1.20
2018-12-25T23:17:46.486Z,2.33
2018-12-25T23:20:18.016Z,1.33
2018-12-25T23:22:57.745Z,1.30
2018-12-25T23:25:26.543Z,0.90
2018-12-25T23:27:59.905Z,1.30
2018-12-25T23:30:31.090Z,1.43
2018-12-25T23:33:01.402Z,1.33
2018-12-25T23:35:34.506Z,1.43
2018-12-25T23:38:07.622Z,1.23
2018-12-25T23:40:38.177Z,1.27
2018-12-25T23:43:09.622Z,1.30
2018-12-25T23:45:39.939Z,1.30
2018-12-25T23:48:11.678Z,1.30
2018-12-25T23:50:42.377Z,1.37
2018-12-25T23:53:13.007Z,1.10
2018-12-25T23:55:52.794Z,1.90
2018-12-25T23:58:16.575Z,1.30
